Webb, Mississippi
Current Conditions -  °F | °C
As of 4:35 AM on Thursday 23 Oct 2014 (Local Time) from KCKM Reporting Station
Clear Clear  
Wind Chill: 36°   Ceiling: Unl
Heat Index: 41°   Visibility: 10mi
Dew Point: 41°   Wind: 7mph
Humidity: 100%   Direction: 350°N
Pressure: 30.18"   Gusts: NA
Location:  33.95°N, 90.34°W
Report Text: KCKM 230935Z AUTO 35006KT 10SM CLR 05/05 A3018 RMK AO1
Loading
Personal Weather Stations






























Interactive Weather Map
Tropical Storm Tracking
New forecast layout! Learn more

10-Day Weather Forecast

Advertisements
Track Severe Weather on mobile